createdAt,value
2018-10-05T17:41:37.234Z,18.22
2018-10-05T17:42:43.986Z,18.21
2018-10-05T17:43:50.894Z,18.21
2018-10-05T17:44:57.778Z,18.19
2018-10-05T17:46:05.203Z,18.18
2018-10-05T17:47:11.546Z,18.16
2018-10-05T17:48:18.266Z,18.16
2018-10-05T17:49:25.171Z,18.15
2018-10-05T17:50:31.955Z,18.14
2018-10-05T17:51:38.842Z,18.12
2018-10-05T17:52:45.628Z,18.11
2018-10-05T17:53:52.731Z,18.08
2018-10-05T17:54:59.687Z,18.07
2018-10-05T17:56:07.212Z,18.06
2018-10-05T17:57:13.295Z,18.02
2018-10-05T17:58:20.597Z,18.03
2018-10-05T17:59:27.323Z,18.01
2018-10-05T18:00:34.107Z,18.00
2018-10-05T18:01:41.419Z,17.99
2018-10-05T18:02:47.758Z,17.98
2018-10-05T18:03:54.710Z,17.96
2018-10-05T18:05:01.634Z,17.97
2018-10-05T18:06:08.952Z,17.95
2018-10-05T18:07:15.842Z,17.93
2018-10-05T18:08:22.844Z,17.93
2018-10-05T18:09:29.665Z,17.91
2018-10-05T18:10:36.489Z,17.90
2018-10-05T18:11:43.679Z,17.87
2018-10-05T18:12:50.483Z,17.86
2018-10-05T18:13:57.121Z,17.85
2018-10-05T18:15:04.435Z,17.83
2018-10-05T18:16:11.582Z,17.82
2018-10-05T18:17:18.942Z,17.81
2018-10-05T18:18:25.307Z,17.78
2018-10-05T18:19:32.080Z,17.78
2018-10-05T18:20:38.959Z,17.76
2018-10-05T18:21:45.802Z,17.75
2018-10-05T18:22:52.658Z,17.74
2018-10-05T18:23:59.836Z,17.70
2018-10-05T18:25:06.437Z,17.69
2018-10-05T18:26:13.273Z,17.68
2018-10-05T18:27:20.351Z,17.68
2018-10-05T18:28:27.015Z,17.66
2018-10-05T18:29:34.299Z,17.63
2018-10-05T18:30:41.184Z,17.61
2018-10-05T18:31:47.943Z,17.59
2018-10-05T18:32:54.988Z,17.59
2018-10-05T18:34:01.606Z,17.55
2018-10-05T18:35:08.512Z,17.55
2018-10-05T18:36:15.404Z,17.54
2018-10-05T18:37:22.307Z,17.51
2018-10-05T18:38:29.242Z,17.50
2018-10-05T18:39:36.410Z,17.48
2018-10-05T18:40:43.278Z,17.47
2018-10-05T18:41:50.135Z,17.44
2018-10-05T18:42:57.003Z,17.43
2018-10-05T18:44:03.894Z,17.40
2018-10-05T18:45:10.735Z,17.39
2018-10-05T18:46:17.510Z,17.37
2018-10-05T18:47:24.389Z,17.35
2018-10-05T18:48:31.247Z,17.34
2018-10-05T18:49:38.139Z,17.31
2018-10-05T18:50:45.087Z,17.29
2018-10-05T18:51:52.061Z,17.29
2018-10-05T18:52:59.040Z,17.27
2018-10-05T18:54:06.130Z,17.26
2018-10-05T18:55:12.953Z,17.25
2018-10-05T18:56:20.067Z,17.22
2018-10-05T18:57:26.784Z,17.20
2018-10-05T18:58:34.361Z,17.17
2018-10-05T18:59:40.740Z,17.16
2018-10-05T19:00:47.674Z,17.14
2018-10-05T19:01:54.296Z,17.12
2018-10-05T19:03:01.652Z,17.10
2018-10-05T19:04:08.536Z,17.10
2018-10-05T19:05:15.288Z,17.07
2018-10-05T19:06:22.390Z,17.05
2018-10-05T19:07:29.227Z,17.04
2018-10-05T19:08:36.087Z,17.00
2018-10-05T19:09:42.849Z,17.00
2018-10-05T19:10:49.727Z,16.98
2018-10-05T19:11:56.683Z,16.96
2018-10-05T19:13:03.562Z,16.94
2018-10-05T19:14:10.419Z,16.92
2018-10-05T19:15:17.281Z,16.90
2018-10-05T19:16:24.174Z,16.89
2018-10-05T19:17:31.047Z,16.87
2018-10-05T19:18:37.995Z,16.86
2018-10-05T19:19:44.692Z,16.85
2018-10-05T19:20:51.556Z,16.81
2018-10-05T19:21:58.499Z,16.80
2018-10-05T19:23:05.566Z,16.78
2018-10-05T19:24:12.319Z,16.76
2018-10-05T19:25:19.087Z,16.74
2018-10-05T19:26:26.081Z,16.72
2018-10-05T19:27:32.926Z,16.69
2018-10-05T19:28:39.762Z,16.67
2018-10-05T19:29:46.657Z,16.66
2018-10-05T19:30:53.542Z,16.62
2018-10-05T19:32:00.614Z,16.62
2018-10-05T19:33:07.565Z,16.59
2018-10-05T19:34:14.381Z,16.59
2018-10-05T19:35:21.602Z,16.55
2018-10-05T19:36:28.500Z,16.54
2018-10-05T19:37:35.370Z,16.52
2018-10-05T19:38:42.118Z,16.51
2018-10-05T19:39:49.394Z,16.48
2018-10-05T19:40:56.159Z,16.47
2018-10-05T19:42:03.224Z,16.45
2018-10-05T19:43:10.391Z,16.43
2018-10-05T19:44:16.702Z,16.42
2018-10-05T19:45:23.626Z,16.38
2018-10-05T19:46:30.710Z,16.38
2018-10-05T19:47:38.379Z,16.36
2018-10-05T19:48:44.418Z,16.34
2018-10-05T19:49:51.005Z,16.33
2018-10-05T19:50:57.855Z,16.32
2018-10-05T19:52:04.845Z,16.28
2018-10-05T19:53:11.913Z,16.28
2018-10-05T19:54:18.669Z,16.25
2018-10-05T19:55:25.723Z,16.23
2018-10-05T19:56:32.522Z,16.22
2018-10-05T19:57:40.918Z,16.19
2018-10-05T19:58:46.223Z,16.18
2018-10-05T19:59:53.156Z,16.16
2018-10-05T20:00:59.942Z,16.13
2018-10-05T20:02:06.870Z,16.11
2018-10-05T20:03:14.007Z,16.10
2018-10-05T20:04:21.096Z,16.08
2018-10-05T20:05:29.531Z,16.05
2018-10-05T20:06:35.088Z,16.03
2018-10-05T20:07:42.012Z,16.01
2018-10-05T20:08:48.752Z,15.98
2018-10-05T20:09:55.975Z,15.97
2018-10-05T20:11:02.912Z,15.94
2018-10-05T20:12:10.020Z,15.94
2018-10-05T20:13:16.857Z,15.92
2018-10-05T20:14:23.720Z,15.90
2018-10-05T20:15:30.367Z,15.87
2018-10-05T20:16:37.241Z,15.86
2018-10-05T20:17:44.199Z,15.82
2018-10-05T20:18:51.382Z,15.80
2018-10-05T20:19:57.742Z,15.78
2018-10-05T20:21:04.622Z,15.77
2018-10-05T20:22:11.486Z,15.74
2018-10-05T20:23:18.347Z,15.72
2018-10-05T20:24:25.218Z,15.69
2018-10-05T20:25:31.984Z,15.68
2018-10-05T20:26:38.857Z,15.67
2018-10-05T20:27:45.810Z,15.65
2018-10-05T20:28:52.895Z,15.63
2018-10-05T20:29:59.660Z,15.61
2018-10-05T20:31:06.622Z,15.58
2018-10-05T20:32:13.402Z,15.56
2018-10-05T20:33:20.359Z,15.54
2018-10-05T20:34:27.148Z,15.53
2018-10-05T20:35:33.866Z,15.49
2018-10-05T20:36:40.874Z,15.47
2018-10-05T20:37:47.854Z,15.46
2018-10-05T20:38:54.618Z,15.43
2018-10-05T20:40:01.259Z,15.41
2018-10-05T20:41:08.139Z,15.39
2018-10-05T20:42:15.514Z,15.37
2018-10-05T20:43:22.478Z,15.36
2018-10-05T20:44:29.360Z,15.33
2018-10-05T20:45:36.222Z,15.29
2018-10-05T20:46:43.168Z,15.29
2018-10-05T20:47:50.055Z,15.27
2018-10-05T20:48:56.913Z,15.26
2018-10-05T20:50:03.634Z,15.21
2018-10-05T20:51:10.547Z,15.20
2018-10-05T20:52:17.355Z,15.20
2018-10-05T20:53:24.184Z,15.17
2018-10-05T20:54:30.951Z,15.14
2018-10-05T20:55:37.829Z,15.13
2018-10-05T20:56:44.679Z,15.11
2018-10-05T20:57:51.563Z,15.08
2018-10-05T20:58:58.430Z,15.03
2018-10-05T21:00:06.190Z,15.03
2018-10-05T21:01:11.838Z,15.01
2018-10-05T21:02:18.716Z,14.98
2018-10-05T21:03:25.531Z,14.97
2018-10-05T21:04:32.568Z,14.94
2018-10-05T21:05:39.506Z,14.92
2018-10-05T21:06:46.425Z,14.89
2018-10-05T21:07:53.358Z,14.89
2018-10-05T21:09:00.123Z,14.86
2018-10-05T21:10:07.173Z,14.84
2018-10-05T21:11:13.961Z,14.82
2018-10-05T21:12:20.822Z,14.80
2018-10-05T21:13:27.713Z,14.77
2018-10-05T21:14:34.423Z,14.77
2018-10-05T21:15:41.327Z,14.74
2018-10-05T21:16:48.100Z,14.70
2018-10-05T21:17:54.999Z,14.69
2018-10-05T21:19:01.815Z,14.67
2018-10-05T21:20:08.625Z,14.63
2018-10-05T21:21:15.511Z,14.65
2018-10-05T21:22:22.406Z,14.61
2018-10-05T21:23:29.402Z,14.60
2018-10-05T21:24:36.374Z,14.57
2018-10-05T21:25:43.178Z,14.57
2018-10-05T21:26:50.202Z,14.53
2018-10-05T21:27:56.998Z,14.52
2018-10-05T21:29:03.844Z,14.51
2018-10-05T21:30:10.510Z,14.49
2018-10-05T21:31:17.260Z,14.47
2018-10-05T21:32:24.144Z,14.42
2018-10-05T21:33:31.007Z,14.40
2018-10-05T21:34:37.795Z,14.39
2018-10-05T21:35:44.644Z,14.37
2018-10-05T21:36:51.710Z,14.36
2018-10-05T21:37:58.486Z,14.34
2018-10-05T21:39:05.422Z,14.31
2018-10-05T21:40:12.282Z,14.30
2018-10-05T21:41:19.173Z,14.27
2018-10-05T21:42:25.929Z,14.26
2018-10-05T21:43:32.816Z,14.25
2018-10-05T21:44:39.682Z,14.21
2018-10-05T21:45:46.535Z,14.19
2018-10-05T21:46:53.403Z,14.18
2018-10-05T21:48:00.187Z,14.16
2018-10-05T21:49:07.214Z,14.15
2018-10-05T21:50:14.126Z,14.12
2018-10-05T21:51:21.136Z,14.10
2018-10-05T21:52:27.967Z,14.07
2018-10-05T21:53:34.863Z,14.07
2018-10-05T21:54:41.670Z,14.05
2018-10-05T21:55:48.450Z,14.02
2018-10-05T21:56:55.390Z,14.02
2018-10-05T21:58:02.191Z,13.99
2018-10-05T21:59:09.021Z,13.98
2018-10-05T22:00:15.811Z,13.96
2018-10-05T22:01:22.943Z,13.93
2018-10-05T22:02:29.769Z,13.91
2018-10-05T22:03:36.852Z,13.90
2018-10-05T22:04:43.811Z,13.89
2018-10-05T22:05:50.651Z,13.86
2018-10-05T22:06:57.696Z,13.84
2018-10-05T22:08:04.609Z,13.82
2018-10-05T22:09:11.495Z,13.81
2018-10-05T22:10:18.451Z,13.79
2018-10-05T22:11:25.303Z,13.77
2018-10-05T22:12:31.946Z,13.76
2018-10-05T22:13:39.351Z,13.73
2018-10-05T22:14:46.102Z,13.72
2018-10-05T22:15:52.913Z,13.71
2018-10-05T22:16:59.744Z,13.68
2018-10-05T22:18:06.579Z,13.67
2018-10-05T22:19:13.395Z,13.65
2018-10-05T22:20:20.344Z,13.62
2018-10-05T22:21:27.115Z,13.62
2018-10-05T22:22:33.878Z,13.59
2018-10-05T22:23:40.862Z,13.58
2018-10-05T22:24:47.773Z,13.57
2018-10-05T22:25:55.001Z,13.55
2018-10-05T22:27:01.352Z,13.52
2018-10-05T22:28:08.301Z,13.52
2018-10-05T22:29:15.193Z,13.51
2018-10-05T22:30:22.167Z,13.48
2018-10-05T22:31:29.044Z,13.47
2018-10-05T22:32:35.955Z,13.46
2018-10-05T22:33:42.775Z,13.44
2018-10-05T22:34:49.632Z,13.43
2018-10-05T22:35:56.386Z,13.38
2018-10-05T22:37:03.250Z,13.38
2018-10-05T22:38:10.028Z,13.36
2018-10-05T22:39:16.799Z,13.36
2018-10-05T22:40:23.656Z,13.34
2018-10-05T22:41:30.432Z,13.31
2018-10-05T22:42:37.403Z,13.29
2018-10-05T22:43:44.475Z,13.28
2018-10-05T22:44:51.655Z,13.27
2018-10-05T22:45:58.432Z,13.24
2018-10-05T22:47:05.367Z,13.22
2018-10-05T22:48:12.159Z,13.22
2018-10-05T22:49:19.029Z,13.19
2018-10-05T22:50:25.770Z,13.18
2018-10-05T22:51:32.478Z,13.16
2018-10-05T22:52:39.398Z,13.14
2018-10-05T22:53:46.162Z,13.15
2018-10-05T22:54:53.065Z,13.11
2018-10-05T22:55:59.928Z,13.09
2018-10-05T22:57:06.875Z,13.08
2018-10-05T22:58:13.742Z,13.07
2018-10-05T22:59:20.713Z,13.04
2018-10-05T23:00:27.380Z,13.03
2018-10-05T23:01:34.226Z,13.01
2018-10-05T23:02:40.942Z,13.00
2018-10-05T23:03:47.782Z,12.96
2018-10-05T23:04:54.575Z,12.96
2018-10-05T23:06:01.410Z,12.96
2018-10-05T23:07:08.379Z,12.94
2018-10-05T23:08:15.247Z,12.90
2018-10-05T23:09:22.235Z,12.90
2018-10-05T23:10:29.094Z,12.88
2018-10-05T23:11:35.938Z,12.88
2018-10-05T23:12:42.904Z,12.86
2018-10-05T23:13:49.822Z,12.83
2018-10-05T23:14:56.738Z,12.83
2018-10-05T23:16:03.519Z,12.81
2018-10-05T23:17:10.066Z,12.80
2018-10-05T23:18:16.938Z,12.78
2018-10-05T23:19:23.839Z,12.76
2018-10-05T23:20:30.570Z,12.74
2018-10-05T23:21:37.545Z,12.73
2018-10-05T23:22:44.349Z,12.72
2018-10-05T23:23:51.173Z,12.70
2018-10-05T23:24:57.862Z,12.68
2018-10-05T23:26:04.719Z,12.65
2018-10-05T23:27:11.354Z,12.67
2018-10-05T23:28:18.545Z,12.63
2018-10-05T23:29:25.528Z,12.61
2018-10-05T23:30:32.308Z,12.61
2018-10-05T23:31:39.218Z,12.58
2018-10-05T23:32:45.919Z,12.57
2018-10-05T23:33:52.686Z,12.57
2018-10-05T23:34:59.391Z,12.55
2018-10-05T23:36:06.317Z,12.53
2018-10-05T23:37:13.126Z,12.52
2018-10-05T23:38:20.159Z,12.51
2018-10-05T23:39:26.905Z,12.49
2018-10-05T23:40:33.649Z,12.48
2018-10-05T23:41:40.853Z,12.47
2018-10-05T23:42:47.751Z,12.44
2018-10-05T23:43:54.702Z,12.43
2018-10-05T23:45:01.663Z,12.42
2018-10-05T23:46:08.785Z,12.41
2018-10-05T23:47:15.270Z,12.39
2018-10-05T23:48:22.255Z,12.38
2018-10-05T23:49:29.059Z,12.36
2018-10-05T23:50:36.041Z,12.36
2018-10-05T23:51:42.871Z,12.34
2018-10-05T23:52:49.803Z,12.31
2018-10-05T23:53:56.711Z,12.30
2018-10-05T23:55:03.569Z,12.30
2018-10-05T23:56:10.651Z,12.27
2018-10-05T23:57:18.333Z,12.28
2018-10-05T23:58:24.402Z,12.26
2018-10-05T23:59:31.213Z,12.24
